createdAt,value
2023-03-29T00:01:55.000Z,8.4
2023-03-29T00:05:28.000Z,7.8
2023-03-29T00:09:01.000Z,6.5
2023-03-29T00:12:33.000Z,7.9
2023-03-29T00:15:24.000Z,8.1
2023-03-29T00:18:57.000Z,6.5
2023-03-29T00:22:30.000Z,5.9
2023-03-29T00:26:02.000Z,8.6
2023-03-29T00:29:35.000Z,9.6
2023-03-29T00:33:08.000Z,7.4
2023-03-29T00:36:40.000Z,7.8
2023-03-29T00:40:13.000Z,8.8
2023-03-29T00:43:46.000Z,7
2023-03-29T00:47:18.000Z,9.9
2023-03-29T00:50:51.000Z,7.9
2023-03-29T00:53:42.000Z,6.4
2023-03-29T00:57:15.000Z,6.1
2023-03-29T01:00:48.000Z,8
2023-03-29T01:04:20.000Z,5.3
2023-03-29T01:07:53.000Z,6.9
2023-03-29T01:11:26.000Z,7.8
2023-03-29T01:14:58.000Z,6.3
2023-03-29T01:18:31.000Z,5.2
2023-03-29T01:22:04.000Z,6.2
2023-03-29T01:25:36.000Z,7.3
2023-03-29T01:29:09.000Z,6
2023-03-29T01:32:00.000Z,7
2023-03-29T01:35:33.000Z,9.2
2023-03-29T01:39:05.000Z,9
2023-03-29T01:42:38.000Z,8.4
2023-03-29T01:46:11.000Z,7.1
2023-03-29T01:49:44.000Z,5.4
2023-03-29T01:53:16.000Z,5.9
2023-03-29T01:56:49.000Z,6.8
2023-03-29T02:00:22.000Z,6.2
2023-03-29T02:03:55.000Z,7.5
2023-03-29T02:07:28.000Z,6.4
2023-03-29T02:10:18.000Z,5.6
2023-03-29T02:13:51.000Z,6.1
2023-03-29T02:17:24.000Z,6.9
2023-03-29T02:20:56.000Z,6.6
2023-03-29T02:24:29.000Z,8.9
2023-03-29T02:28:02.000Z,8.6
2023-03-29T02:31:35.000Z,8.8
2023-03-29T02:35:07.000Z,6
2023-03-29T02:38:40.000Z,8.2
2023-03-29T02:42:13.000Z,12.2
2023-03-29T02:45:45.000Z,7.4
2023-03-29T02:48:36.000Z,9.3
2023-03-29T02:52:09.000Z,7.3
2023-03-29T02:55:41.000Z,7.9
2023-03-29T02:59:14.000Z,7.1
2023-03-29T03:02:47.000Z,7.8
2023-03-29T03:06:19.000Z,6.9
2023-03-29T03:09:52.000Z,9.8
2023-03-29T03:13:25.000Z,7.1
2023-03-29T03:16:58.000Z,7.4
2023-03-29T03:20:30.000Z,9.1
2023-03-29T03:24:03.000Z,6.8
2023-03-29T03:26:54.000Z,6.4
2023-03-29T03:30:27.000Z,6.6
2023-03-29T03:34:00.000Z,7.1
2023-03-29T03:37:32.000Z,4.6
2023-03-29T03:41:05.000Z,8.6
2023-03-29T03:44:37.000Z,4.6
2023-03-29T03:48:10.000Z,5.7
2023-03-29T03:51:43.000Z,7.8
2023-03-29T03:55:17.000Z,6.9
2023-03-29T03:58:50.000Z,4.3
2023-03-29T04:02:23.000Z,5.9
2023-03-29T04:05:14.000Z,7.2
2023-03-29T04:08:47.000Z,4.8
2023-03-29T04:12:20.000Z,6.1
2023-03-29T04:15:52.000Z,7
2023-03-29T04:19:27.000Z,10
2023-03-29T04:23:00.000Z,6.4
2023-03-29T04:26:32.000Z,4.4
2023-03-29T04:30:05.000Z,6.4
2023-03-29T04:33:38.000Z,6.8
2023-03-29T04:37:10.000Z,6.7
2023-03-29T04:40:46.000Z,6.7
2023-03-29T04:43:38.000Z,4.1
2023-03-29T04:47:10.000Z,5.7
2023-03-29T04:50:43.000Z,5.2
2023-03-29T04:54:15.000Z,5.3
2023-03-29T04:57:48.000Z,4.1
2023-03-29T05:01:21.000Z,6.8
2023-03-29T05:04:53.000Z,5.4
2023-03-29T05:08:26.000Z,7.3
2023-03-29T05:11:59.000Z,5
2023-03-29T05:15:31.000Z,7.2
2023-03-29T05:19:06.000Z,7.4
2023-03-29T05:21:57.000Z,5.1
2023-03-29T05:25:30.000Z,5.4
2023-03-29T05:29:02.000Z,6.1
2023-03-29T05:32:35.000Z,4.9
2023-03-29T05:36:08.000Z,4.9
2023-03-29T05:39:40.000Z,5.3
2023-03-29T05:43:13.000Z,6.6
2023-03-29T05:46:46.000Z,4.8
2023-03-29T05:50:18.000Z,5
2023-03-29T05:53:51.000Z,5.7
2023-03-29T05:57:23.000Z,6.7
2023-03-29T06:00:14.000Z,7.4
2023-03-29T06:03:47.000Z,5.5
2023-03-29T06:07:20.000Z,7.3
2023-03-29T06:10:52.000Z,4.7
2023-03-29T06:14:28.000Z,5.9
2023-03-29T06:18:00.000Z,5
2023-03-29T06:21:33.000Z,7.1
2023-03-29T06:25:06.000Z,5.6
2023-03-29T06:28:38.000Z,6
2023-03-29T06:32:11.000Z,7.6
2023-03-29T06:35:44.000Z,5.7
2023-03-29T06:38:35.000Z,5.3
2023-03-29T06:42:07.000Z,5.2
2023-03-29T06:45:46.000Z,4.8
2023-03-29T06:49:20.000Z,5.8
2023-03-29T06:52:52.000Z,6.6
2023-03-29T06:56:25.000Z,8
2023-03-29T07:00:01.000Z,5.6
2023-03-29T07:03:34.000Z,7.5
2023-03-29T07:07:06.000Z,7.1
2023-03-29T07:10:39.000Z,7.4
2023-03-29T07:14:12.000Z,5
2023-03-29T07:17:03.000Z,5.3
2023-03-29T07:20:36.000Z,4.2
2023-03-29T07:24:08.000Z,5.9
2023-03-29T07:27:41.000Z,5.5
2023-03-29T07:31:13.000Z,8
2023-03-29T07:34:46.000Z,8.3
2023-03-29T07:38:19.000Z,6.4
2023-03-29T07:41:52.000Z,6.2
2023-03-29T07:45:24.000Z,6.2
2023-03-29T07:48:57.000Z,4
2023-03-29T07:52:30.000Z,6.8
2023-03-29T07:55:21.000Z,6.6
2023-03-29T07:58:53.000Z,6.2
2023-03-29T08:02:26.000Z,5.1
2023-03-29T08:05:59.000Z,4.9
2023-03-29T08:09:32.000Z,6.5
2023-03-29T08:13:04.000Z,6.7
2023-03-29T08:16:37.000Z,5.5
2023-03-29T08:20:10.000Z,4.9
2023-03-29T08:23:42.000Z,8.5
2023-03-29T08:27:15.000Z,6.6
2023-03-29T08:30:48.000Z,6.3
2023-03-29T08:33:39.000Z,7
2023-03-29T08:37:12.000Z,6.4
2023-03-29T08:40:44.000Z,4.7
2023-03-29T08:44:17.000Z,6.1
2023-03-29T08:47:50.000Z,7
2023-03-29T08:51:22.000Z,7.4
2023-03-29T08:54:55.000Z,5.6
2023-03-29T08:58:31.000Z,8.9
2023-03-29T09:02:04.000Z,8.8
2023-03-29T09:05:36.000Z,7
2023-03-29T09:09:09.000Z,7.2
2023-03-29T09:12:00.000Z,6.3
2023-03-29T09:15:33.000Z,3.9
2023-03-29T09:19:06.000Z,5.3
2023-03-29T09:22:38.000Z,4.3
2023-03-29T09:26:11.000Z,5.9
2023-03-29T09:29:44.000Z,6.3
2023-03-29T09:33:16.000Z,3.7
2023-03-29T09:36:49.000Z,6.1
2023-03-29T09:40:22.000Z,6.4
2023-03-29T09:43:54.000Z,7.7
2023-03-29T09:47:27.000Z,6.2
2023-03-29T09:50:18.000Z,5.2
2023-03-29T09:53:57.000Z,4.7
2023-03-29T09:57:30.000Z,5
2023-03-29T10:01:02.000Z,6.8
2023-03-29T10:04:35.000Z,5.8
2023-03-29T10:08:08.000Z,5.9
2023-03-29T10:11:44.000Z,3.3
2023-03-29T10:15:16.000Z,4.2
2023-03-29T10:18:55.000Z,4.9
2023-03-29T10:22:28.000Z,5.3
2023-03-29T10:26:00.000Z,5.1
2023-03-29T10:28:51.000Z,7.7
2023-03-29T10:32:24.000Z,5.2
2023-03-29T10:35:57.000Z,6.9
2023-03-29T10:39:29.000Z,8
2023-03-29T10:43:02.000Z,6
2023-03-29T10:46:35.000Z,7.6
2023-03-29T10:50:08.000Z,8.9
2023-03-29T10:53:40.000Z,6.6
2023-03-29T10:57:13.000Z,8
2023-03-29T11:00:48.000Z,6.1
2023-03-29T11:04:20.000Z,7.4
2023-03-29T11:07:12.000Z,10.3
2023-03-29T11:10:44.000Z,7.9
2023-03-29T11:14:17.000Z,7.9
2023-03-29T11:17:50.000Z,8.3
2023-03-29T11:21:22.000Z,8.5
2023-03-29T11:24:55.000Z,7.5
2023-03-29T11:28:27.000Z,7.1
2023-03-29T11:32:00.000Z,7.6
2023-03-29T11:35:33.000Z,8.8
2023-03-29T11:39:05.000Z,7.4
2023-03-29T11:42:38.000Z,6.8
2023-03-29T11:45:29.000Z,6.8
2023-03-29T11:49:02.000Z,7.1
2023-03-29T11:52:35.000Z,6.2
2023-03-29T11:56:08.000Z,6.5
2023-03-29T11:59:40.000Z,7
2023-03-29T12:03:13.000Z,6.9
2023-03-29T12:06:46.000Z,6.8
2023-03-29T12:10:18.000Z,6.5
2023-03-29T12:13:51.000Z,6.1
2023-03-29T12:17:24.000Z,5.5
2023-03-29T12:20:56.000Z,7
2023-03-29T12:23:48.000Z,5
2023-03-29T12:27:22.000Z,5.4
2023-03-29T12:30:54.000Z,5.3
2023-03-29T12:34:27.000Z,6
2023-03-29T12:38:00.000Z,7.6
2023-03-29T12:41:32.000Z,5.8
2023-03-29T12:45:05.000Z,5.3
2023-03-29T12:48:38.000Z,5.5
2023-03-29T12:52:10.000Z,5.6
2023-03-29T12:55:43.000Z,6.4
2023-03-29T12:59:16.000Z,6.6
2023-03-29T13:02:07.000Z,7
2023-03-29T13:05:40.000Z,8.9
2023-03-29T13:09:13.000Z,6.2
2023-03-29T13:12:45.000Z,6
2023-03-29T13:16:18.000Z,6.3
2023-03-29T13:19:51.000Z,6.4
2023-03-29T13:23:23.000Z,6.8
2023-03-29T13:26:56.000Z,7
2023-03-29T13:30:29.000Z,4.9
2023-03-29T13:34:01.000Z,4.1
2023-03-29T13:37:34.000Z,4.8
2023-03-29T13:40:25.000Z,6.5
2023-03-29T13:43:58.000Z,4
2023-03-29T13:47:31.000Z,4.3
2023-03-29T13:51:03.000Z,5.9
2023-03-29T13:54:36.000Z,4.9
2023-03-29T13:58:08.000Z,5.2
2023-03-29T14:01:41.000Z,4.8
2023-03-29T14:05:14.000Z,3.5
2023-03-29T14:08:47.000Z,6.1
2023-03-29T14:12:19.000Z,6.4
2023-03-29T14:15:52.000Z,4.2
2023-03-29T14:18:44.000Z,4.2
2023-03-29T14:22:17.000Z,6
2023-03-29T14:25:49.000Z,6.2
2023-03-29T14:29:22.000Z,6.6
2023-03-29T14:32:55.000Z,7.8
2023-03-29T14:36:28.000Z,6.2
2023-03-29T14:40:00.000Z,6.5
2023-03-29T14:43:33.000Z,7
2023-03-29T14:47:06.000Z,5.3
2023-03-29T14:50:38.000Z,5.8
2023-03-29T14:54:11.000Z,6
2023-03-29T14:57:02.000Z,6.2
2023-03-29T15:00:35.000Z,7.4
2023-03-29T15:04:08.000Z,6.7
2023-03-29T15:07:40.000Z,7.2
2023-03-29T15:11:13.000Z,8.5
2023-03-29T15:14:46.000Z,10.3
2023-03-29T15:18:18.000Z,7.6
2023-03-29T15:21:51.000Z,5.5
2023-03-29T15:25:27.000Z,7.9
2023-03-29T15:29:00.000Z,7.4
2023-03-29T15:32:32.000Z,5.1
2023-03-29T15:35:23.000Z,5.9
2023-03-29T15:38:56.000Z,7.3
2023-03-29T15:42:29.000Z,7.5
2023-03-29T15:46:01.000Z,7.3
2023-03-29T15:49:34.000Z,9.8
2023-03-29T15:53:07.000Z,7.2
2023-03-29T15:56:40.000Z,8.1
2023-03-29T16:00:13.000Z,7.1
2023-03-29T16:03:46.000Z,9.1
2023-03-29T16:07:19.000Z,5.8
2023-03-29T16:10:54.000Z,6.7
2023-03-29T16:13:46.000Z,8.7
2023-03-29T16:17:18.000Z,9.1
2023-03-29T16:20:51.000Z,9.6
2023-03-29T16:24:24.000Z,6.4
2023-03-29T16:27:56.000Z,7.2
2023-03-29T16:31:29.000Z,8.8
2023-03-29T16:35:02.000Z,36.3
2023-03-29T16:38:35.000Z,26.9
2023-03-29T16:42:07.000Z,17.3
2023-03-29T16:45:40.000Z,9.2
2023-03-29T16:49:12.000Z,7.4
2023-03-29T16:52:04.000Z,10.1
2023-03-29T16:55:36.000Z,8.7
2023-03-29T16:59:09.000Z,9.9
2023-03-29T17:02:46.000Z,8.8
2023-03-29T17:06:18.000Z,8.4
2023-03-29T17:09:51.000Z,5.5
2023-03-29T17:13:24.000Z,7.2
2023-03-29T17:16:56.000Z,11.5
2023-03-29T17:20:29.000Z,10.2
2023-03-29T17:24:01.000Z,8.2
2023-03-29T17:27:34.000Z,7.7
2023-03-29T17:30:25.000Z,9.6
2023-03-29T17:33:58.000Z,7.6
2023-03-29T17:37:30.000Z,7.3
2023-03-29T17:41:03.000Z,7.9
2023-03-29T17:44:35.000Z,7.1
2023-03-29T17:48:08.000Z,7.8
2023-03-29T17:51:41.000Z,7
2023-03-29T17:55:13.000Z,6.3
2023-03-29T17:58:46.000Z,7.3
2023-03-29T18:02:19.000Z,9.6
2023-03-29T18:05:52.000Z,7.9
2023-03-29T18:08:43.000Z,7.2
2023-03-29T18:12:15.000Z,6.3
2023-03-29T18:15:48.000Z,5.2
2023-03-29T18:19:20.000Z,6.1
2023-03-29T18:22:53.000Z,6.2
2023-03-29T18:26:26.000Z,6
2023-03-29T18:29:58.000Z,8.2
2023-03-29T18:33:31.000Z,7.3
2023-03-29T18:37:04.000Z,8.1
2023-03-29T18:40:37.000Z,8.8
2023-03-29T18:44:11.000Z,7.8
2023-03-29T18:47:02.000Z,6.2
2023-03-29T18:50:35.000Z,6.1
2023-03-29T18:54:07.000Z,8.3
2023-03-29T18:57:40.000Z,6.3
2023-03-29T19:01:12.000Z,6.9
2023-03-29T19:04:45.000Z,7.9
2023-03-29T19:08:18.000Z,9
2023-03-29T19:11:50.000Z,10.9
2023-03-29T19:15:23.000Z,13.9
2023-03-29T19:18:56.000Z,10.9
2023-03-29T19:22:28.000Z,10.7
2023-03-29T19:25:19.000Z,9
2023-03-29T19:28:52.000Z,10.6
2023-03-29T19:32:25.000Z,9.1
2023-03-29T19:35:59.000Z,7
2023-03-29T19:39:32.000Z,8.6
2023-03-29T19:43:05.000Z,8.6
2023-03-29T19:46:37.000Z,7.7
2023-03-29T19:50:10.000Z,7.8
2023-03-29T19:53:43.000Z,7.1
2023-03-29T19:57:16.000Z,5.1
2023-03-29T20:00:48.000Z,8.8
2023-03-29T20:03:40.000Z,8.6
2023-03-29T20:07:12.000Z,6.6
2023-03-29T20:10:45.000Z,7.3
2023-03-29T20:14:18.000Z,8.2
2023-03-29T20:17:51.000Z,7.3
2023-03-29T20:21:25.000Z,7
2023-03-29T20:24:59.000Z,6.3
2023-03-29T20:28:31.000Z,5.9
2023-03-29T20:32:04.000Z,5.3
2023-03-29T20:35:37.000Z,7.1
2023-03-29T20:39:10.000Z,9.5
2023-03-29T20:42:01.000Z,7.6
2023-03-29T20:45:34.000Z,5.4
2023-03-29T20:49:18.000Z,7.4
2023-03-29T20:52:50.000Z,7.3
2023-03-29T20:56:23.000Z,7
2023-03-29T20:59:56.000Z,5.3
2023-03-29T21:03:28.000Z,8.5
2023-03-29T21:07:01.000Z,5.1
2023-03-29T21:10:34.000Z,5.3
2023-03-29T21:14:07.000Z,6.4
2023-03-29T21:17:39.000Z,8.7
2023-03-29T21:20:31.000Z,7
2023-03-29T21:24:03.000Z,8.5
2023-03-29T21:27:36.000Z,11.2
2023-03-29T21:31:08.000Z,11.2
2023-03-29T21:34:41.000Z,11.2
2023-03-29T21:38:14.000Z,12.5
2023-03-29T21:41:47.000Z,12
2023-03-29T21:45:19.000Z,10.1
2023-03-29T21:48:52.000Z,10.3
2023-03-29T21:52:24.000Z,9.4
2023-03-29T21:55:57.000Z,10.7
2023-03-29T21:58:48.000Z,15
2023-03-29T22:02:21.000Z,14.5
2023-03-29T22:05:54.000Z,9.6
2023-03-29T22:09:26.000Z,7.5
2023-03-29T22:12:59.000Z,7.7
2023-03-29T22:16:32.000Z,9.3
2023-03-29T22:20:04.000Z,8.1
2023-03-29T22:23:37.000Z,13.2
2023-03-29T22:27:10.000Z,11.9
2023-03-29T22:30:42.000Z,10.8
2023-03-29T22:34:15.000Z,10.3
2023-03-29T22:37:06.000Z,7.9
2023-03-29T22:40:39.000Z,8.8
2023-03-29T22:44:11.000Z,8.3
2023-03-29T22:47:44.000Z,8.2
2023-03-29T22:51:17.000Z,6.8
2023-03-29T22:54:49.000Z,7.3
2023-03-29T22:58:22.000Z,8.6
2023-03-29T23:01:55.000Z,9.4
2023-03-29T23:05:28.000Z,5.8
2023-03-29T23:09:00.000Z,6.6
2023-03-29T23:12:33.000Z,5.1
2023-03-29T23:15:24.000Z,9.3
2023-03-29T23:18:57.000Z,3.8
2023-03-29T23:22:30.000Z,6
2023-03-29T23:26:02.000Z,5.4
2023-03-29T23:29:35.000Z,4.1
2023-03-29T23:33:09.000Z,5.3
2023-03-29T23:36:41.000Z,7.1
2023-03-29T23:40:14.000Z,4.8
2023-03-29T23:43:46.000Z,4.8
2023-03-29T23:47:19.000Z,5.6
2023-03-29T23:50:52.000Z,5.3
2023-03-29T23:53:43.000Z,5.3
2023-03-29T23:57:16.000Z,6.2
